Time;durP1;ratioP1;P1;durP2;ratioP2;P2;SDS_P1;SDS_P2;PMS_P1;PMS_P2;Temp;Humidity;BMP_temperature;BMP_pressure;BME280_temperature;BME280_humidity;BME280_pressure;Samples;Min_cycle;Max_cycle;Signal;HPM_P1;HPM_P2
2021/03/31 00:01:30;;;;;;;11.33;6.73;;;20.80;48.30;;;;;;5094469;28;20436;-55
2021/03/31 00:03:57;;;;;;;8.37;6.60;;;20.80;48.30;;;;;;5080809;28;20572;-55
2021/03/31 00:06:24;;;;;;;12.07;7.30;;;20.70;48.30;;;;;;5054626;28;20531;-54
2021/03/31 00:08:51;;;;;;;8.63;6.97;;;20.70;48.30;;;;;;5055072;28;20490;-55
2021/03/31 00:11:19;;;;;;;12.30;8.07;;;20.70;48.60;;;;;;5055170;28;20500;-53
2021/03/31 00:13:46;;;;;;;8.63;6.77;;;20.70;48.60;;;;;;5070663;28;20474;-55
2021/03/31 00:16:14;;;;;;;10.27;7.10;;;20.60;48.50;;;;;;5074230;28;20469;-52
2021/03/31 00:18:41;;;;;;;9.30;6.93;;;20.60;48.60;;;;;;5074826;28;20433;-54
2021/03/31 00:21:08;;;;;;;9.23;6.80;;;20.70;48.80;;;;;;5071451;28;20463;-52
2021/03/31 00:23:35;;;;;;;10.30;6.93;;;20.60;48.70;;;;;;5054577;28;20554;-51
2021/03/31 00:26:02;;;;;;;14.10;6.90;;;20.60;48.80;;;;;;5054417;28;20401;-54
2021/03/31 00:28:29;;;;;;;10.27;7.63;;;20.60;48.70;;;;;;5054531;28;20417;-53
2021/03/31 00:30:57;;;;;;;12.10;7.30;;;20.60;49.00;;;;;;5055085;28;20511;-54
2021/03/31 00:33:24;;;;;;;8.23;6.57;;;20.60;48.70;;;;;;5054430;28;20500;-55
2021/03/31 00:35:51;;;;;;;7.67;6.77;;;20.50;48.80;;;;;;5054185;28;20453;-54
2021/03/31 00:38:18;;;;;;;8.93;6.87;;;20.50;48.70;;;;;;5054327;28;20466;-54
2021/03/31 00:40:46;;;;;;;10.50;6.90;;;20.50;49.00;;;;;;5073324;28;20469;-55
2021/03/31 00:43:13;;;;;;;9.00;7.03;;;20.50;49.20;;;;;;5074528;28;20416;-55
2021/03/31 00:45:40;;;;;;;8.37;6.67;;;20.40;49.10;;;;;;5073744;28;20493;-52
2021/03/31 00:48:08;;;;;;;11.23;7.33;;;20.40;49.20;;;;;;5080776;28;20448;-52
2021/03/31 00:50:36;;;;;;;9.67;7.20;;;20.40;49.20;;;;;;5095173;28;20451;-55
2021/03/31 00:53:04;;;;;;;10.30;7.60;;;20.40;49.30;;;;;;5095089;28;20440;-55
2021/03/31 00:55:31;;;;;;;10.00;7.30;;;20.30;49.20;;;;;;5093437;28;20544;-51
2021/03/31 00:57:59;;;;;;;9.63;6.63;;;20.30;49.30;;;;;;5086530;28;20533;-53
2021/03/31 01:00:26;;;;;;;9.07;6.77;;;20.30;49.30;;;;;;5072670;28;20441;-53
2021/03/31 01:02:53;;;;;;;10.67;7.40;;;20.30;50.10;;;;;;5073865;28;20449;-56
2021/03/31 01:05:22;;;;;;;10.67;7.10;;;20.20;49.40;;;;;;5065017;28;20435;-54
2021/03/31 01:07:50;;;;;;;9.50;7.10;;;20.20;49.40;;;;;;5092979;28;20487;-55
2021/03/31 01:10:18;;;;;;;7.57;6.20;;;20.20;49.40;;;;;;5092948;28;20478;-55
2021/03/31 01:13:00;;;;;;;10.63;7.30;;;20.20;49.50;;;;;;5093819;28;20524;-54
2021/03/31 01:15:31;;;;;;;11.43;7.27;;;20.10;49.50;;;;;;5093064;28;20515;-55
2021/03/31 01:18:01;;;;;;;10.50;7.23;;;20.10;49.70;;;;;;5094238;28;20463;-53
2021/03/31 01:21:05;;;;;;;10.20;7.20;;;20.10;49.60;;;;;;5094268;28;20569;-55
2021/03/31 01:24:04;;;;;;;11.53;7.50;;;20.00;49.70;;;;;;5080547;28;20487;-54
2021/03/31 01:26:52;;;;;;;9.20;6.77;;;20.00;49.80;;;;;;5053774;28;20500;-55
2021/03/31 01:29:29;;;;;;;8.47;7.10;;;19.90;49.80;;;;;;5053596;28;20478;-54
2021/03/31 01:32:04;;;;;;;10.10;7.37;;;19.90;49.90;;;;;;5053993;28;20440;-54
2021/03/31 01:34:36;;;;;;;8.00;6.17;;;19.80;49.70;;;;;;5053405;28;20504;-55
2021/03/31 01:37:08;;;;;;;11.03;6.90;;;19.80;50.00;;;;;;5052995;28;20466;-55
2021/03/31 01:39:37;;;;;;;10.07;7.20;;;19.80;50.00;;;;;;5052271;28;20458;-55
2021/03/31 01:42:05;;;;;;;11.10;7.00;;;19.80;50.20;;;;;;5052679;28;20438;-54
2021/03/31 01:44:32;;;;;;;9.63;7.43;;;19.80;50.20;;;;;;5051934;28;20505;-55
2021/03/31 01:46:59;;;;;;;10.90;7.40;;;19.70;50.00;;;;;;5052200;28;20478;-51
2021/03/31 01:49:26;;;;;;;10.87;7.40;;;19.70;50.20;;;;;;5054109;28;20446;-55
2021/03/31 01:51:56;;;;;;;9.63;7.13;;;19.70;50.20;;;;;;5092609;28;20502;-54
2021/03/31 01:54:23;;;;;;;11.57;7.00;;;19.60;50.40;;;;;;5093061;28;20555;-55
2021/03/31 01:56:50;;;;;;;9.50;6.77;;;19.60;50.40;;;;;;5093610;28;20503;-55
2021/03/31 01:59:18;;;;;;;11.97;7.40;;;19.60;50.30;;;;;;5093261;28;20444;-50
2021/03/31 02:01:45;;;;;;;10.17;7.60;;;19.60;50.30;;;;;;5093777;28;20451;-56
2021/03/31 02:04:12;;;;;;;10.77;8.07;;;19.60;50.50;;;;;;5092965;28;20432;-54
2021/03/31 02:06:39;;;;;;;9.00;7.00;;;19.60;50.50;;;;;;5093811;28;20433;-53
2021/03/31 02:09:06;;;;;;;9.93;7.87;;;19.60;50.60;;;;;;5092910;28;20461;-54
2021/03/31 02:11:33;;;;;;;9.30;7.00;;;19.50;50.50;;;;;;5093528;28;20445;-53
2021/03/31 02:14:00;;;;;;;10.60;7.23;;;19.50;50.60;;;;;;5093768;28;20448;-54
2021/03/31 02:16:27;;;;;;;9.73;7.13;;;19.50;50.50;;;;;;5083592;28;20509;-53
2021/03/31 02:18:54;;;;;;;9.63;7.30;;;19.50;50.60;;;;;;5053362;28;20477;-54
2021/03/31 02:21:23;;;;;;;9.70;7.43;;;19.40;50.60;;;;;;5052972;28;20438;-52
2021/03/31 02:23:50;;;;;;;10.47;7.27;;;19.50;50.60;;;;;;5054792;28;20466;-51
2021/03/31 02:26:18;;;;;;;9.37;6.90;;;19.40;50.60;;;;;;5057129;28;20450;-54
2021/03/31 02:28:45;;;;;;;8.70;6.40;;;19.40;50.60;;;;;;5057018;28;20458;-55
2021/03/31 02:31:13;;;;;;;10.20;6.83;;;19.30;50.80;;;;;;5056930;28;20470;-55
2021/03/31 02:33:42;;;;;;;9.43;7.67;;;19.40;51.40;;;;;;5058552;28;20529;-50
2021/03/31 02:36:10;;;;;;;10.20;7.23;;;19.30;50.90;;;;;;5096782;28;20468;-53
2021/03/31 02:38:37;;;;;;;9.03;7.00;;;19.30;50.70;;;;;;5097377;28;20506;-55
2021/03/31 02:41:04;;;;;;;8.50;7.13;;;19.30;50.90;;;;;;5096928;28;20497;-55
2021/03/31 02:43:31;;;;;;;10.23;7.00;;;19.30;50.80;;;;;;5096525;28;20475;-55
2021/03/31 02:45:58;;;;;;;10.80;7.27;;;19.20;51.00;;;;;;5096125;28;20429;-52
2021/03/31 02:48:25;;;;;;;9.20;7.33;;;19.20;50.90;;;;;;5096863;28;20491;-51
2021/03/31 02:50:55;;;;;;;10.30;7.30;;;19.20;51.10;;;;;;5096931;28;20440;-53
2021/03/31 02:53:22;;;;;;;8.50;6.63;;;19.20;51.10;;;;;;5062082;28;20516;-53
2021/03/31 02:55:50;;;;;;;8.73;7.17;;;19.20;50.90;;;;;;5055940;28;20470;-56
2021/03/31 02:58:17;;;;;;;9.20;6.80;;;19.10;51.10;;;;;;5056495;28;20457;-56
2021/03/31 03:00:44;;;;;;;11.07;7.23;;;19.10;51.00;;;;;;5061278;28;20457;-56
2021/03/31 03:03:11;;;;;;;9.27;7.27;;;19.10;51.30;;;;;;5076688;28;20430;-55
2021/03/31 03:05:38;;;;;;;11.93;6.90;;;19.10;51.10;;;;;;5075985;28;20476;-55
2021/03/31 03:08:06;;;;;;;8.50;6.80;;;19.10;51.30;;;;;;5076172;28;20454;-53
2021/03/31 03:10:33;;;;;;;10.03;6.77;;;19.10;51.20;;;;;;5063594;28;20442;-55
2021/03/31 03:13:02;;;;;;;9.80;7.47;;;19.00;51.40;;;;;;5056839;28;20515;-55
2021/03/31 03:15:30;;;;;;;11.30;7.57;;;19.00;51.40;;;;;;5055838;28;20443;-55
2021/03/31 03:17:58;;;;;;;7.80;6.17;;;19.00;51.50;;;;;;5057971;28;20484;-52
2021/03/31 03:20:25;;;;;;;9.87;7.27;;;19.00;51.40;;;;;;5096698;28;20506;-55
2021/03/31 03:22:53;;;;;;;8.40;6.73;;;18.90;51.50;;;;;;5096618;28;20443;-54
2021/03/31 03:25:22;;;;;;;7.63;6.50;;;18.90;51.60;;;;;;5095646;28;20457;-56
2021/03/31 03:27:49;;;;;;;10.07;7.20;;;18.90;51.60;;;;;;5077081;28;20453;-56
2021/03/31 03:30:17;;;;;;;12.43;6.73;;;18.80;51.50;;;;;;5056341;28;20486;-54
2021/03/31 03:32:46;;;;;;;8.57;6.20;;;18.80;51.70;;;;;;5056128;28;20470;-56
2021/03/31 03:35:14;;;;;;;10.03;6.90;;;18.80;51.40;;;;;;5055400;28;20430;-54
2021/03/31 03:37:43;;;;;;;10.53;7.20;;;18.80;51.60;;;;;;5091884;28;20487;-56
2021/03/31 03:40:11;;;;;;;7.83;6.23;;;18.80;51.80;;;;;;5096129;28;20532;-55
2021/03/31 03:42:37;;;;;;;10.97;7.57;;;18.80;51.80;;;;;;5095873;28;20479;-53
2021/03/31 03:45:06;;;;;;;8.30;6.53;;;18.70;51.80;;;;;;5095162;28;20510;-54
2021/03/31 03:47:33;;;;;;;8.43;6.80;;;18.70;51.70;;;;;;5096079;28;20490;-54
2021/03/31 03:50:00;;;;;;;8.23;6.70;;;18.70;51.90;;;;;;5095883;28;20546;-56
2021/03/31 03:52:28;;;;;;;9.60;6.87;;;18.70;51.90;;;;;;5095703;28;20468;-53
2021/03/31 03:54:56;;;;;;;12.63;7.53;;;18.60;51.90;;;;;;5094425;28;20468;-54
2021/03/31 03:57:24;;;;;;;9.90;7.37;;;18.60;51.90;;;;;;5095470;28;20555;-51
2021/03/31 03:59:51;;;;;;;8.27;6.13;;;18.60;52.00;;;;;;5095409;28;20440;-53
2021/03/31 04:02:18;;;;;;;8.87;6.97;;;18.50;52.10;;;;;;5093268;28;20429;-53
2021/03/31 04:04:45;;;;;;;11.13;7.23;;;18.50;52.10;;;;;;5074700;28;20489;-50
2021/03/31 04:07:16;;;;;;;8.30;6.30;;;18.50;51.90;;;;;;5075063;28;20454;-54
2021/03/31 04:09:45;;;;;;;9.13;6.90;;;18.50;52.30;;;;;;5075011;28;20465;-55
2021/03/31 04:12:12;;;;;;;9.10;6.63;;;18.50;52.30;;;;;;5064714;28;20486;-56
2021/03/31 04:14:39;;;;;;;8.13;6.60;;;18.50;52.40;;;;;;5054567;28;20538;-54
2021/03/31 04:17:06;;;;;;;10.60;6.63;;;18.50;52.50;;;;;;5054784;28;20549;-56
2021/03/31 04:19:34;;;;;;;9.80;7.17;;;18.40;52.40;;;;;;5054673;28;20525;-54
2021/03/31 04:22:02;;;;;;;9.33;7.17;;;18.40;52.40;;;;;;5055122;28;20474;-56
2021/03/31 04:24:29;;;;;;;9.17;7.10;;;18.40;52.40;;;;;;5054609;28;20532;-54
2021/03/31 04:26:57;;;;;;;9.90;6.70;;;18.30;52.40;;;;;;5054927;28;20442;-52
2021/03/31 04:29:24;;;;;;;8.60;6.40;;;18.30;52.40;;;;;;5055200;28;20443;-51
2021/03/31 04:31:51;;;;;;;6.43;5.73;;;18.30;52.40;;;;;;5054602;28;20451;-56
2021/03/31 04:34:18;;;;;;;8.20;7.07;;;18.30;52.50;;;;;;5053991;28;20435;-51
2021/03/31 04:36:45;;;;;;;9.40;6.73;;;18.20;52.40;;;;;;5054996;28;20474;-56
2021/03/31 04:39:12;;;;;;;8.30;6.87;;;18.20;52.60;;;;;;5069156;28;20458;-53
2021/03/31 04:41:38;;;;;;;9.40;6.90;;;18.20;52.70;;;;;;5074462;28;20437;-54
2021/03/31 04:44:07;;;;;;;9.10;7.03;;;18.20;52.70;;;;;;5074116;28;20460;-55
2021/03/31 04:46:34;;;;;;;11.10;7.30;;;18.20;52.70;;;;;;5075342;28;20504;-52
2021/03/31 04:49:02;;;;;;;8.10;6.17;;;18.10;52.70;;;;;;5094306;28;20448;-55
2021/03/31 04:51:29;;;;;;;9.73;6.33;;;18.10;52.80;;;;;;5094843;28;20433;-55
2021/03/31 04:53:56;;;;;;;7.33;6.40;;;18.10;52.60;;;;;;5094627;28;20537;-55
2021/03/31 04:56:24;;;;;;;8.40;6.40;;;18.10;52.80;;;;;;5092844;28;20540;-52
2021/03/31 04:58:51;;;;;;;12.00;6.60;;;18.00;53.00;;;;;;5094283;28;20452;-54
2021/03/31 05:01:18;;;;;;;8.53;6.00;;;18.00;52.80;;;;;;5094561;28;20440;-56
2021/03/31 05:03:46;;;;;;;9.77;6.60;;;18.00;52.90;;;;;;5073667;28;20441;-53
2021/03/31 05:06:13;;;;;;;9.17;7.20;;;18.00;52.80;;;;;;5073282;28;20495;-55
2021/03/31 05:08:39;;;;;;;9.10;6.97;;;17.90;52.70;;;;;;5073959;28;20434;-52
2021/03/31 05:11:06;;;;;;;9.70;7.10;;;18.00;53.00;;;;;;5073989;28;20468;-54
2021/03/31 05:13:33;;;;;;;10.90;6.70;;;17.90;52.90;;;;;;5079255;28;20510;-54
2021/03/31 05:16:00;;;;;;;8.50;6.23;;;17.90;52.80;;;;;;5093617;28;20540;-56
2021/03/31 05:18:28;;;;;;;7.93;6.63;;;17.90;52.90;;;;;;5094488;28;20455;-55
2021/03/31 05:20:55;;;;;;;8.47;6.43;;;17.90;52.80;;;;;;5094192;28;20514;-53
2021/03/31 05:23:22;;;;;;;8.10;6.40;;;17.90;52.90;;;;;;5066672;28;20442;-56
2021/03/31 05:25:49;;;;;;;8.63;6.30;;;17.90;53.00;;;;;;5053613;28;20440;-56
2021/03/31 05:28:16;;;;;;;9.87;6.80;;;17.90;52.90;;;;;;5053939;28;20484;-56
2021/03/31 05:30:43;;;;;;;10.03;6.30;;;17.80;52.90;;;;;;5055871;28;20449;-56
2021/03/31 05:33:10;;;;;;;8.00;6.50;;;17.90;52.80;;;;;;5094367;28;20436;-53
2021/03/31 05:35:38;;;;;;;7.97;6.47;;;17.80;52.90;;;;;;5093797;28;20436;-54
2021/03/31 05:38:05;;;;;;;7.07;5.80;;;17.90;53.10;;;;;;5094126;28;20510;-55
2021/03/31 05:40:32;;;;;;;7.43;6.10;;;17.90;52.80;;;;;;5093442;28;20473;-56
2021/03/31 05:42:59;;;;;;;7.60;6.47;;;17.80;52.90;;;;;;5094278;28;20507;-52
2021/03/31 05:45:27;;;;;;;8.07;6.53;;;17.80;52.90;;;;;;5093280;28;20448;-55
2021/03/31 05:47:54;;;;;;;9.63;7.00;;;17.80;52.90;;;;;;5093828;28;20471;-56
2021/03/31 05:50:21;;;;;;;8.10;6.33;;;17.80;52.90;;;;;;5093265;28;20455;-52
2021/03/31 05:52:49;;;;;;;8.70;6.50;;;17.80;53.00;;;;;;5093826;28;20441;-52
2021/03/31 05:55:17;;;;;;;8.63;6.30;;;17.80;52.90;;;;;;5092929;28;20436;-54
2021/03/31 05:57:44;;;;;;;7.70;6.23;;;17.80;53.00;;;;;;5083488;28;20475;-54
2021/03/31 06:00:12;;;;;;;7.77;6.13;;;17.70;53.00;;;;;;5057957;28;20461;-51
2021/03/31 06:02:39;;;;;;;8.33;6.37;;;17.80;52.90;;;;;;5056760;28;20443;-56
2021/03/31 06:05:08;;;;;;;8.77;6.77;;;17.80;53.00;;;;;;5065491;28;20507;-54
2021/03/31 06:07:35;;;;;;;8.97;6.23;;;17.80;53.00;;;;;;5071660;28;20437;-56
2021/03/31 06:10:13;;;;;;;8.43;6.50;;;17.80;52.70;;;;;;5077169;28;20440;-54
2021/03/31 06:12:42;;;;;;;7.90;6.40;;;17.90;52.60;;;;;;5077497;28;20437;-56
2021/03/31 06:15:16;;;;;;;8.77;6.40;;;17.90;52.60;;;;;;5074879;28;20434;-56
2021/03/31 06:17:48;;;;;;;7.50;5.83;;;17.90;52.60;;;;;;5057214;28;20477;-52
2021/03/31 06:20:36;;;;;;;6.90;5.87;;;18.00;52.50;;;;;;5057136;28;20462;-56
2021/03/31 06:23:11;;;;;;;7.00;5.80;;;18.00;52.50;;;;;;5056985;28;20507;-54
2021/03/31 06:25:46;;;;;;;9.00;6.47;;;18.10;52.60;;;;;;5056870;28;20513;-51
2021/03/31 06:28:12;;;;;;;8.40;6.63;;;18.10;52.30;;;;;;5057137;28;20429;-51
2021/03/31 06:30:40;;;;;;;8.23;6.00;;;18.10;52.30;;;;;;5056880;28;20465;-54
2021/03/31 06:33:06;;;;;;;9.53;6.70;;;18.10;52.40;;;;;;5057240;28;20465;-55
2021/03/31 06:35:34;;;;;;;7.77;6.80;;;18.20;52.30;;;;;;5056581;28;20431;-56
2021/03/31 06:38:06;;;;;;;8.23;6.60;;;18.20;52.10;;;;;;5057262;28;20478;-56
2021/03/31 06:40:37;;;;;;;7.00;5.90;;;18.30;51.90;;;;;;5056941;28;20442;-55
2021/03/31 06:43:12;;;;;;;7.83;6.50;;;18.40;51.80;;;;;;5084641;28;20447;-53
2021/03/31 06:45:45;;;;;;;7.53;6.13;;;18.50;51.70;;;;;;5096334;28;20444;-53
2021/03/31 06:48:12;;;;;;;9.57;6.67;;;18.50;51.40;;;;;;5097030;28;20494;-56
2021/03/31 06:50:39;;;;;;;8.50;7.13;;;18.60;51.40;;;;;;5090440;28;20445;-54
2021/03/31 06:53:06;;;;;;;9.40;6.77;;;18.70;51.30;;;;;;5056675;28;20434;-55
2021/03/31 06:55:34;;;;;;;7.00;5.83;;;18.80;51.00;;;;;;5056268;28;20474;-56
2021/03/31 06:58:02;;;;;;;10.20;6.60;;;18.80;50.90;;;;;;5056041;28;20473;-53
2021/03/31 07:00:30;;;;;;;9.70;6.13;;;19.00;50.70;;;;;;5079625;28;20440;-56
2021/03/31 07:03:00;;;;;;;8.37;6.70;;;18.90;50.60;;;;;;5096592;28;20573;-56
2021/03/31 07:05:28;;;;;;;6.20;5.57;;;19.00;50.50;;;;;;5096298;28;20433;-56
2021/03/31 07:08:02;;;;;;;7.63;6.63;;;19.00;50.60;;;;;;5096810;28;20483;-54
2021/03/31 07:10:29;;;;;;;13.60;7.37;;;18.80;51.10;;;;;;5095976;28;20479;-56
2021/03/31 07:12:55;;;;;;;7.17;6.47;;;18.80;51.30;;;;;;5096526;28;20501;-57
2021/03/31 07:15:24;;;;;;;8.43;6.07;;;18.80;51.40;;;;;;5096292;28;20445;-51
2021/03/31 07:17:54;;;;;;;8.43;5.87;;;18.80;51.30;;;;;;5079111;28;20478;-53
2021/03/31 07:20:21;;;;;;;8.93;6.47;;;18.80;51.20;;;;;;5056124;28;20461;-57
2021/03/31 07:22:48;;;;;;;7.30;6.10;;;18.80;51.30;;;;;;5056003;28;20468;-53
2021/03/31 07:25:17;;;;;;;8.77;6.20;;;18.80;51.20;;;;;;5055163;28;20446;-55
2021/03/31 07:27:44;;;;;;;9.33;6.07;;;19.00;51.20;;;;;;5056537;28;20469;-54
2021/03/31 07:30:13;;;;;;;6.67;5.73;;;19.00;51.00;;;;;;5056261;28;20435;-54
2021/03/31 07:33:02;;;;;;;7.67;6.10;;;19.00;51.10;;;;;;5055997;28;20431;-54
2021/03/31 07:35:33;;;;;;;7.10;6.00;;;19.10;50.80;;;;;;5056153;28;20466;-56
2021/03/31 07:38:01;;;;;;;8.40;5.57;;;19.10;50.80;;;;;;5055655;28;20480;-54
2021/03/31 07:40:32;;;;;;;7.53;5.90;;;19.20;50.60;;;;;;5055773;28;20435;-57
2021/03/31 07:43:01;;;;;;;9.27;6.67;;;19.30;50.60;;;;;;5055705;28;20512;-57
2021/03/31 07:45:30;;;;;;;18.27;6.60;;;19.40;50.30;;;;;;5055480;28;20476;-54
2021/03/31 07:47:58;;;;;;;6.53;5.67;;;19.40;50.30;;;;;;5055319;28;20453;-55
2021/03/31 07:50:26;;;;;;;6.77;5.97;;;19.50;50.30;;;;;;5055731;28;20442;-55
2021/03/31 07:52:56;;;;;;;9.50;6.73;;;19.50;50.20;;;;;;5055901;28;20475;-52
2021/03/31 07:55:39;;;;;;;7.23;6.10;;;19.70;49.90;;;;;;5054722;28;20508;-52
2021/03/31 07:58:20;;;;;;;7.00;6.10;;;19.70;49.80;;;;;;5055291;28;20470;-51
2021/03/31 08:01:08;;;;;;;6.47;5.60;;;19.90;49.80;;;;;;5055275;28;20458;-56
2021/03/31 08:03:36;;;;;;;10.07;6.13;;;20.00;49.60;;;;;;5055574;28;20422;-54
2021/03/31 08:06:14;;;;;;;7.87;6.00;;;20.20;49.50;;;;;;5054725;28;20430;-57
2021/03/31 08:08:58;;;;;;;7.27;5.60;;;20.30;49.30;;;;;;5055267;28;20438;-54
2021/03/31 08:11:58;;;;;;;7.03;5.40;;;20.50;49.00;;;;;;5055250;28;20438;-54
2021/03/31 08:14:45;;;;;;;6.70;5.47;;;20.90;48.80;;;;;;5054413;28;20509;-55
2021/03/31 08:17:32;;;;;;;7.93;5.70;;;21.20;48.40;;;;;;5054700;28;20480;-57
2021/03/31 08:19:59;;;;;;;6.67;5.10;;;21.30;48.10;;;;;;5055125;28;20508;-57
2021/03/31 08:22:35;;;;;;;7.00;5.57;;;21.60;47.90;;;;;;5054332;28;20424;-54
2021/03/31 08:25:13;;;;;;;5.70;5.00;;;21.80;47.80;;;;;;5054491;28;20503;-54
2021/03/31 08:27:57;;;;;;;7.07;5.67;;;22.10;47.50;;;;;;5054806;28;20458;-53
2021/03/31 08:30:24;;;;;;;6.03;5.43;;;22.30;47.20;;;;;;5054929;28;20456;-55
2021/03/31 08:32:51;;;;;;;5.50;5.00;;;22.60;47.00;;;;;;5054296;28;20466;-54
2021/03/31 08:35:20;;;;;;;9.40;5.07;;;22.80;46.70;;;;;;5053059;28;20514;-53
2021/03/31 08:37:49;;;;;;;5.70;5.10;;;23.10;46.40;;;;;;5054796;28;20479;-54
2021/03/31 08:40:16;;;;;;;5.87;5.27;;;23.30;46.10;;;;;;5064362;28;20447;-53
2021/03/31 08:43:01;;;;;;;5.60;5.10;;;23.50;45.80;;;;;;5071271;28;20424;-54
2021/03/31 08:45:31;;;;;;;5.70;5.10;;;23.80;45.60;;;;;;5074281;28;20434;-55
2021/03/31 08:47:59;;;;;;;7.27;5.27;;;24.00;45.30;;;;;;5066857;28;20447;-55
2021/03/31 08:50:33;;;;;;;5.50;5.00;;;24.20;45.00;;;;;;5074299;28;20499;-54
2021/03/31 08:53:03;;;;;;;4.97;4.47;;;24.40;45.50;;;;;;5069341;28;20494;-56
2021/03/31 08:55:30;;;;;;;5.20;4.70;;;24.70;44.60;;;;;;5084688;28;20436;-56
2021/03/31 08:57:57;;;;;;;5.03;4.50;;;25.00;44.30;;;;;;5094311;28;20494;-56
2021/03/31 09:00:24;;;;;;;5.33;4.83;;;25.10;44.20;;;;;;5094426;28;20494;-56
2021/03/31 09:03:02;;;;;;;6.00;4.63;;;25.40;43.90;;;;;;5094641;28;20443;-56
2021/03/31 09:05:29;;;;;;;5.30;4.80;;;25.70;43.50;;;;;;5054156;28;20459;-56
2021/03/31 09:08:01;;;;;;;5.43;4.93;;;25.80;43.30;;;;;;5054052;28;20447;-56
2021/03/31 09:10:51;;;;;;;5.80;4.67;;;26.00;43.00;;;;;;5053783;28;20413;-56
2021/03/31 09:13:26;;;;;;;7.83;4.97;;;26.30;42.60;;;;;;5077360;28;20544;-55
2021/03/31 09:15:55;;;;;;;5.53;5.07;;;26.60;42.40;;;;;;5093841;28;20486;-56
2021/03/31 09:18:22;;;;;;;5.27;4.67;;;26.70;42.20;;;;;;5094162;28;20483;-54
2021/03/31 09:20:49;;;;;;;5.83;5.17;;;27.00;41.90;;;;;;5092960;28;20441;-54
2021/03/31 09:23:24;;;;;;;4.60;4.30;;;27.20;41.70;;;;;;5054237;28;20445;-55
2021/03/31 09:25:58;;;;;;;5.53;5.10;;;27.40;41.40;;;;;;5053339;28;20470;-56
2021/03/31 09:28:25;;;;;;;4.80;4.50;;;27.60;41.00;;;;;;5053662;28;20511;-53
2021/03/31 09:30:54;;;;;;;5.17;4.73;;;27.80;40.70;;;;;;5064692;28;20478;-56
2021/03/31 09:33:27;;;;;;;5.10;4.70;;;28.00;40.60;;;;;;5073798;28;20457;-54
2021/03/31 09:36:14;;;;;;;5.20;4.80;;;28.30;40.30;;;;;;5073502;28;20482;-56
2021/03/31 09:38:44;;;;;;;5.03;4.63;;;28.60;39.80;;;;;;5071695;28;20497;-56
2021/03/31 09:41:12;;;;;;;5.13;4.63;;;28.80;39.50;;;;;;5053966;28;20443;-55
2021/03/31 09:43:39;;;;;;;4.70;4.30;;;29.10;39.30;;;;;;5049330;28;20488;-56
2021/03/31 09:46:08;;;;;;;4.97;4.67;;;29.30;38.90;;;;;;5053314;28;20445;-56
2021/03/31 09:48:35;;;;;;;4.90;4.37;;;29.60;38.50;;;;;;5053951;28;20449;-56
2021/03/31 09:51:10;;;;;;;4.70;4.40;;;29.90;38.10;;;;;;5053092;28;20427;-56
2021/03/31 09:53:37;;;;;;;5.10;4.70;;;30.10;37.80;;;;;;5060200;28;20471;-56
2021/03/31 09:56:06;;;;;;;5.13;4.80;;;30.20;37.70;;;;;;5073406;28;20468;-55
2021/03/31 09:58:33;;;;;;;4.87;4.50;;;30.50;37.40;;;;;;5053556;28;20528;-56
2021/03/31 10:00:59;;;;;;;8.80;4.83;;;30.70;37.00;;;;;;5053647;28;20430;-54
2021/03/31 10:03:31;;;;;;;4.80;4.40;;;30.90;36.80;;;;;;5053417;28;20446;-57
2021/03/31 10:06:00;;;;;;;5.10;4.63;;;31.10;36.50;;;;;;5057593;28;20439;-55
2021/03/31 10:08:26;;;;;;;4.47;4.17;;;31.30;36.20;;;;;;5055008;28;20434;-55
2021/03/31 10:10:54;;;;;;;7.33;4.77;;;31.60;36.00;;;;;;5053612;28;20533;-56
2021/03/31 10:13:24;;;;;;;4.80;4.50;;;31.80;35.70;;;;;;5053480;28;20438;-56
2021/03/31 10:15:58;;;;;;;5.10;4.60;;;32.00;35.30;;;;;;5070056;28;20441;-56
2021/03/31 10:18:25;;;;;;;4.57;4.33;;;32.30;35.10;;;;;;5073351;28;20477;-56
2021/03/31 10:20:52;;;;;;;4.37;4.17;;;32.50;34.70;;;;;;5073455;28;20433;-56
2021/03/31 10:23:24;;;;;;;4.63;4.33;;;32.80;34.50;;;;;;5068248;28;20443;-56
2021/03/31 10:26:19;;;;;;;5.03;4.63;;;33.00;34.10;;;;;;5052295;28;20450;-56
2021/03/31 10:28:50;;;;;;;5.83;4.80;;;33.20;33.80;;;;;;5052965;28;20458;-55
2021/03/31 10:31:39;;;;;;;4.47;4.27;;;33.50;33.50;;;;;;5053429;28;20434;-56
2021/03/31 10:34:15;;;;;;;4.40;4.20;;;33.80;33.10;;;;;;5052575;28;20517;-56
2021/03/31 10:36:50;;;;;;;4.80;4.40;;;34.10;32.80;;;;;;5053186;28;20439;-57
2021/03/31 10:50:29;;;;;;;3.97;3.77;;;35.40;31.20;;;;;;5074724;28;20479;-59
2021/03/31 10:52:58;;;;;;;4.40;4.20;;;35.90;30.70;;;;;;5096724;28;20475;-59
2021/03/31 10:55:25;;;;;;;4.30;4.20;;;36.10;30.30;;;;;;5096263;28;20482;-59
2021/03/31 10:57:52;;;;;;;4.67;4.47;;;36.40;30.00;;;;;;5096453;28;20563;-56
2021/03/31 11:00:27;;;;;;;4.47;4.27;;;36.70;29.70;;;;;;5057430;28;20442;-56
2021/03/31 11:03:13;;;;;;;4.23;3.93;;;37.00;29.40;;;;;;5056503;28;20529;-58
2021/03/31 11:05:39;;;;;;;4.33;4.13;;;37.30;29.20;;;;;;5064070;28;20436;-59
2021/03/31 11:08:07;;;;;;;4.40;4.20;;;37.60;28.90;;;;;;5066496;28;20474;-59
2021/03/31 11:10:34;;;;;;;3.90;3.70;;;37.80;28.60;;;;;;5056314;28;20467;-60
2021/03/31 11:13:01;;;;;;;3.93;3.80;;;38.10;28.20;;;;;;5055893;28;20474;-59
2021/03/31 11:15:28;;;;;;;3.80;3.70;;;38.40;28.00;;;;;;5055631;28;20481;-60
2021/03/31 11:18:07;;;;;;;3.63;3.50;;;38.60;27.70;;;;;;5056541;28;20470;-59
2021/03/31 11:20:46;;;;;;;4.00;3.70;;;39.30;27.20;;;;;;5055791;28;20462;-56
2021/03/31 11:25:58;;;;;;;3.40;3.20;;;43.80;23.80;;;;;;5066655;28;20479;-57
2021/03/31 11:28:26;;;;;;;2.90;2.80;;;45.50;22.50;;;;;;5075881;28;20469;-55
2021/03/31 11:30:54;;;;;;;2.40;2.40;;;46.50;21.50;;;;;;5074732;28;20479;-59
2021/03/31 11:33:22;;;;;;;2.28;2.20;;;47.40;20.90;;;;;;5074639;28;20286;-57
2021/03/31 11:35:49;;;;;;;1.77;1.77;;;47.80;20.60;;;;;;5073629;28;20279;-57
2021/03/31 11:38:16;;;;;;;1.65;1.65;;;48.50;20.20;;;;;;5066427;28;20200;-59
2021/03/31 11:40:43;;;;;;;1.55;1.55;;;49.30;19.60;;;;;;5075604;28;20200;-59
2021/03/31 11:43:12;;;;;;;1.48;1.48;;;49.90;19.00;;;;;;5068711;28;20275;-59
2021/03/31 11:45:38;;;;;;;1.20;1.20;;;50.60;18.60;;;;;;5054773;28;20212;-59
2021/03/31 11:48:07;;;;;;;1.30;1.30;;;51.40;18.80;;;;;;5057954;28;20244;-59
2021/03/31 11:50:34;;;;;;;0.95;0.95;;;51.60;18.50;;;;;;5074795;28;20219;-58
2021/03/31 11:53:01;;;;;;;1.23;1.23;;;52.10;17.80;;;;;;5074220;28;20211;-59
2021/03/31 11:55:27;;;;;;;1.20;1.20;;;52.40;17.80;;;;;;5073733;28;20197;-58
2021/03/31 11:57:54;;;;;;;1.25;1.25;;;52.80;17.50;;;;;;5062759;28;20268;-59
2021/03/31 12:00:22;;;;;;;1.17;1.17;;;53.40;17.40;;;;;;5066201;28;20231;-58
2021/03/31 12:02:49;;;;;;;1.40;1.30;;;53.70;17.30;;;;;;5074876;28;20266;-59
2021/03/31 12:05:18;;;;;;;1.67;1.30;;;53.60;17.30;;;;;;5065222;28;20225;-58
2021/03/31 12:07:45;;;;;;;1.80;1.65;;;53.70;17.00;;;;;;5062794;28;20312;-59
2021/03/31 12:10:12;;;;;;;1.77;1.67;;;54.40;16.30;;;;;;5067501;28;20258;-58
2021/03/31 12:12:41;;;;;;;1.10;1.10;;;54.70;16.60;;;;;;5061774;28;20260;-59
2021/03/31 12:15:09;;;;;;;1.45;1.45;;;54.60;16.00;;;;;;5054684;28;20296;-59
2021/03/31 12:17:37;;;;;;;1.65;1.20;;;55.10;15.80;;;;;;5065548;28;20197;-58
2021/03/31 12:20:05;;;;;;;1.17;1.17;;;55.60;16.20;;;;;;5093880;28;20284;-58
2021/03/31 12:22:33;;;;;;;1.58;1.40;;;55.10;15.50;;;;;;5094817;28;20290;-58
2021/03/31 12:25:00;;;;;;;1.65;1.20;;;55.10;15.40;;;;;;5090800;28;20223;-59
2021/03/31 12:27:28;;;;;;;1.00;1.00;;;56.00;15.60;;;;;;5065041;28;20237;-57
2021/03/31 12:29:58;;;;;;;4.90;2.60;;;55.80;15.40;;;;;;5063871;28;20204;-54
2021/03/31 12:32:25;;;;;;;3.55;2.83;;;50.10;14.50;;;;;;5070620;28;20283;-56
2021/03/31 12:34:53;;;;;;;4.97;4.68;;;45.30;16.90;;;;;;5072517;28;20196;-56
2021/03/31 12:37:20;;;;;;;3.97;3.80;;;43.40;17.10;;;;;;5066677;28;20204;-65
2021/03/31 12:39:48;;;;;;;15.52;5.20;;;42.80;18.60;;;;;;5063936;28;20257;-64
2021/03/31 12:42:15;;;;;;;7.20;6.07;;;42.80;18.50;;;;;;5064504;28;20197;-58
2021/03/31 12:44:42;;;;;;;5.78;5.05;;;42.40;18.30;;;;;;5064667;28;20201;-58
2021/03/31 12:47:11;;;;;;;5.97;5.47;;;42.20;18.30;;;;;;5064388;28;20283;-58
2021/03/31 12:49:38;;;;;;;5.82;5.28;;;41.90;16.70;;;;;;5065459;28;20304;-58
2021/03/31 12:52:07;;;;;;;5.78;5.20;;;42.20;18.40;;;;;;5064940;28;20242;-58
2021/03/31 12:54:39;;;;;;;5.88;5.57;;;42.20;16.50;;;;;;5063449;28;20288;-58
2021/03/31 12:57:07;;;;;;;6.90;5.93;;;42.20;17.70;;;;;;5062873;28;20197;-57
2021/03/31 12:59:34;;;;;;;7.03;6.53;;;42.60;17.50;;;;;;5063495;28;20254;-56
2021/03/31 13:02:23;;;;;;;9.10;8.27;;;42.80;14.90;;;;;;5066172;28;20208;-55
2021/03/31 13:05:11;;;;;;;5.93;5.43;;;42.00;16.20;;;;;;5063936;28;20207;-58
2021/03/31 13:07:57;;;;;;;7.65;7.00;;;42.20;16.90;;;;;;5063821;28;20212;-58
2021/03/31 13:10:46;;;;;;;7.47;6.57;;;42.20;16.60;;;;;;5064163;28;20189;-58
2021/03/31 13:13:21;;;;;;;6.82;6.43;;;41.60;17.00;;;;;;5065223;28;20222;-58